sensor_id;sensor_type;location;lat;lon;timestamp;pressure;altitude;pressure_sealevel;temperature;humidity
14393;BME280;7281;42.678;23.372;2022-11-20T00:00:51;94379.47;;;18.91;51.03
14393;BME280;7281;42.678;23.372;2022-11-20T00:03:18;94357.38;;;19.07;50.89
14393;BME280;7281;42.678;23.372;2022-11-20T00:05:45;94374.63;;;19.22;50.87
14393;BME280;7281;42.678;23.372;2022-11-20T00:08:12;94397.28;;;18.90;51.38
14393;BME280;7281;42.678;23.372;2022-11-20T00:10:40;94390.22;;;18.57;52.05
14393;BME280;7281;42.678;23.372;2022-11-20T00:13:07;94388.59;;;19.10;50.85
14393;BME280;7281;42.678;23.372;2022-11-20T00:15:34;94393.06;;;18.89;51.37
14393;BME280;7281;42.678;23.372;2022-11-20T00:18:01;94389.88;;;19.04;51.43
14393;BME280;7281;42.678;23.372;2022-11-20T00:20:28;94374.56;;;19.10;50.82
14393;BME280;7281;42.678;23.372;2022-11-20T00:22:55;94403.22;;;18.24;53.06
14393;BME280;7281;42.678;23.372;2022-11-20T00:25:21;94395.06;;;18.55;52.62
14393;BME280;7281;42.678;23.372;2022-11-20T00:27:48;94352.72;;;19.04;51.10
14393;BME280;7281;42.678;23.372;2022-11-20T00:30:15;94375.22;;;18.98;51.51
14393;BME280;7281;42.678;23.372;2022-11-20T00:32:42;94391.69;;;18.83;51.62
14393;BME280;7281;42.678;23.372;2022-11-20T00:35:08;94343.63;;;19.35;50.46
14393;BME280;7281;42.678;23.372;2022-11-20T00:37:35;94358.94;;;19.38;50.30
14393;BME280;7281;42.678;23.372;2022-11-20T00:40:02;94373.03;;;19.00;51.12
14393;BME280;7281;42.678;23.372;2022-11-20T00:42:29;94366.81;;;18.59;51.85
14393;BME280;7281;42.678;23.372;2022-11-20T00:44:59;94385.91;;;18.81;51.14
14393;BME280;7281;42.678;23.372;2022-11-20T00:47:25;94371.38;;;19.16;50.11
14393;BME280;7281;42.678;23.372;2022-11-20T00:49:52;94363.50;;;19.29;49.59
14393;BME280;7281;42.678;23.372;2022-11-20T00:52:19;94369.44;;;19.26;48.68
14393;BME280;7281;42.678;23.372;2022-11-20T00:54:46;94367.25;;;19.28;48.54
14393;BME280;7281;42.678;23.372;2022-11-20T00:57:13;94392.22;;;18.60;50.48
14393;BME280;7281;42.678;23.372;2022-11-20T00:59:39;94394.47;;;18.87;49.47
14393;BME280;7281;42.678;23.372;2022-11-20T01:02:06;94362.78;;;19.49;48.53
14393;BME280;7281;42.678;23.372;2022-11-20T01:04:33;94346.38;;;19.47;48.32
14393;BME280;7281;42.678;23.372;2022-11-20T01:07:00;94365.09;;;19.71;47.40
14393;BME280;7281;42.678;23.372;2022-11-20T01:09:27;94369.13;;;19.77;46.65
14393;BME280;7281;42.678;23.372;2022-11-20T01:11:54;94349.56;;;20.14;45.59
14393;BME280;7281;42.678;23.372;2022-11-20T01:14:21;94342.22;;;20.11;45.60
14393;BME280;7281;42.678;23.372;2022-11-20T01:16:49;94361.59;;;19.58;46.07
14393;BME280;7281;42.678;23.372;2022-11-20T01:19:20;94341.19;;;19.71;45.07
14393;BME280;7281;42.678;23.372;2022-11-20T01:21:52;94323.66;;;19.90;44.64
14393;BME280;7281;42.678;23.372;2022-11-20T01:24:21;94326.38;;;20.14;43.81
14393;BME280;7281;42.678;23.372;2022-11-20T01:26:50;94322.50;;;20.45;44.08
14393;BME280;7281;42.678;23.372;2022-11-20T01:29:22;94321.50;;;20.49;44.29
14393;BME280;7281;42.678;23.372;2022-11-20T01:31:50;94319.38;;;20.31;44.35
14393;BME280;7281;42.678;23.372;2022-11-20T01:34:19;94305.53;;;20.25;44.71
14393;BME280;7281;42.678;23.372;2022-11-20T01:36:47;94313.16;;;19.94;44.80
14393;BME280;7281;42.678;23.372;2022-11-20T01:39:17;94320.38;;;19.73;45.85
14393;BME280;7281;42.678;23.372;2022-11-20T01:41:46;94312.47;;;19.85;45.61
14393;BME280;7281;42.678;23.372;2022-11-20T01:44:56;94314.19;;;20.34;45.01
14393;BME280;7281;42.678;23.372;2022-11-20T01:52:39;94297.81;;;19.58;45.83
14393;BME280;7281;42.678;23.372;2022-11-20T01:55:13;94296.91;;;19.75;46.06
14393;BME280;7281;42.678;23.372;2022-11-20T01:57:41;94301.97;;;20.33;44.62
14393;BME280;7281;42.678;23.372;2022-11-20T02:00:12;94295.63;;;20.26;44.47
14393;BME280;7281;42.678;23.372;2022-11-20T02:02:43;94289.56;;;20.49;44.26
14393;BME280;7281;42.678;23.372;2022-11-20T02:05:25;94311.13;;;20.56;42.90
14393;BME280;7281;42.678;23.372;2022-11-20T02:07:55;94319.97;;;20.60;43.14
14393;BME280;7281;42.678;23.372;2022-11-20T02:10:23;94317.75;;;20.62;43.33
14393;BME280;7281;42.678;23.372;2022-11-20T02:12:51;94310.84;;;20.49;42.83
14393;BME280;7281;42.678;23.372;2022-11-20T02:15:37;94313.97;;;20.51;43.07
14393;BME280;7281;42.678;23.372;2022-11-20T02:18:05;94310.88;;;20.73;42.55
14393;BME280;7281;42.678;23.372;2022-11-20T02:20:32;94333.44;;;20.31;43.18
14393;BME280;7281;42.678;23.372;2022-11-20T02:23:12;94306.47;;;20.65;42.35
14393;BME280;7281;42.678;23.372;2022-11-20T02:25:40;94317.94;;;20.33;42.97
14393;BME280;7281;42.678;23.372;2022-11-20T02:28:09;94331.09;;;19.97;42.75
14393;BME280;7281;42.678;23.372;2022-11-20T02:30:36;94293.38;;;20.72;42.00
14393;BME280;7281;42.678;23.372;2022-11-20T02:33:03;94319.44;;;20.91;42.35
14393;BME280;7281;42.678;23.372;2022-11-20T02:37:59;94324.31;;;20.65;42.42
14393;BME280;7281;42.678;23.372;2022-11-20T02:40:27;94322.69;;;21.08;41.67
14393;BME280;7281;42.678;23.372;2022-11-20T02:42:55;94327.31;;;21.11;40.10
14393;BME280;7281;42.678;23.372;2022-11-20T02:45:23;94322.88;;;20.91;40.22
14393;BME280;7281;42.678;23.372;2022-11-20T02:47:51;94330.41;;;21.38;39.63
14393;BME280;7281;42.678;23.372;2022-11-20T02:50:18;94318.88;;;21.09;39.68
14393;BME280;7281;42.678;23.372;2022-11-20T02:52:45;94339.25;;;21.54;38.77
14393;BME280;7281;42.678;23.372;2022-11-20T02:55:12;94335.69;;;21.62;38.60
14393;BME280;7281;42.678;23.372;2022-11-20T02:57:39;94347.34;;;22.09;37.88
14393;BME280;7281;42.678;23.372;2022-11-20T03:00:08;94350.69;;;22.06;37.58
14393;BME280;7281;42.678;23.372;2022-11-20T03:02:35;94371.38;;;21.33;38.76
14393;BME280;7281;42.678;23.372;2022-11-20T03:05:02;94351.94;;;21.45;39.10
14393;BME280;7281;42.678;23.372;2022-11-20T03:07:29;94367.09;;;21.68;38.92
14393;BME280;7281;42.678;23.372;2022-11-20T03:09:56;94369.06;;;22.66;37.23
14393;BME280;7281;42.678;23.372;2022-11-20T03:12:23;94362.31;;;22.41;37.81
14393;BME280;7281;42.678;23.372;2022-11-20T03:14:50;94366.09;;;21.85;38.42
14393;BME280;7281;42.678;23.372;2022-11-20T03:17:19;94374.66;;;22.18;37.85
14393;BME280;7281;42.678;23.372;2022-11-20T03:19:45;94368.09;;;21.76;38.60
14393;BME280;7281;42.678;23.372;2022-11-20T03:22:12;94367.81;;;22.48;37.44
14393;BME280;7281;42.678;23.372;2022-11-20T03:24:39;94390.78;;;22.37;37.65
14393;BME280;7281;42.678;23.372;2022-11-20T03:27:06;94372.59;;;22.27;37.61
14393;BME280;7281;42.678;23.372;2022-11-20T03:29:35;94385.78;;;21.80;38.19
14393;BME280;7281;42.678;23.372;2022-11-20T03:32:02;94368.81;;;22.56;37.32
14393;BME280;7281;42.678;23.372;2022-11-20T03:34:28;94384.09;;;22.86;36.93
14393;BME280;7281;42.678;23.372;2022-11-20T03:36:55;94386.84;;;22.74;37.43
14393;BME280;7281;42.678;23.372;2022-11-20T03:39:22;94385.34;;;22.61;37.82
14393;BME280;7281;42.678;23.372;2022-11-20T03:41:50;94396.44;;;22.91;37.02
14393;BME280;7281;42.678;23.372;2022-11-20T03:44:16;94389.94;;;22.76;36.90
14393;BME280;7281;42.678;23.372;2022-11-20T03:46:43;94392.44;;;22.69;37.15
14393;BME280;7281;42.678;23.372;2022-11-20T03:49:10;94398.97;;;22.56;37.45
14393;BME280;7281;42.678;23.372;2022-11-20T03:51:37;94396.00;;;22.46;38.25
14393;BME280;7281;42.678;23.372;2022-11-20T03:54:06;94394.84;;;22.59;37.64
14393;BME280;7281;42.678;23.372;2022-11-20T03:56:36;94391.03;;;22.32;37.81
14393;BME280;7281;42.678;23.372;2022-11-20T03:59:04;94386.22;;;22.38;38.22
14393;BME280;7281;42.678;23.372;2022-11-20T04:01:34;94389.75;;;21.86;37.93
14393;BME280;7281;42.678;23.372;2022-11-20T04:04:02;94382.41;;;22.23;38.00
14393;BME280;7281;42.678;23.372;2022-11-20T04:06:33;94383.56;;;22.38;37.66
14393;BME280;7281;42.678;23.372;2022-11-20T04:09:01;94392.44;;;22.14;37.54
14393;BME280;7281;42.678;23.372;2022-11-20T04:11:30;94396.81;;;22.06;37.42
14393;BME280;7281;42.678;23.372;2022-11-20T04:13:59;94399.94;;;22.52;37.39
14393;BME280;7281;42.678;23.372;2022-11-20T04:16:29;94387.09;;;22.69;36.74
14393;BME280;7281;42.678;23.372;2022-11-20T04:19:02;94387.63;;;22.47;37.75
14393;BME280;7281;42.678;23.372;2022-11-20T04:21:29;94388.00;;;21.78;37.97
14393;BME280;7281;42.678;23.372;2022-11-20T04:23:57;94400.00;;;22.12;37.62
14393;BME280;7281;42.678;23.372;2022-11-20T04:26:25;94399.44;;;22.46;37.28
14393;BME280;7281;42.678;23.372;2022-11-20T04:28:52;94409.94;;;22.11;37.73
14393;BME280;7281;42.678;23.372;2022-11-20T04:31:22;94410.78;;;21.52;38.44
14393;BME280;7281;42.678;23.372;2022-11-20T04:33:50;94409.22;;;21.63;38.52
14393;BME280;7281;42.678;23.372;2022-11-20T04:36:26;94413.25;;;22.21;37.58
14393;BME280;7281;42.678;23.372;2022-11-20T04:38:59;94416.28;;;22.07;37.99
14393;BME280;7281;42.678;23.372;2022-11-20T04:41:32;94413.00;;;22.26;37.51
14393;BME280;7281;42.678;23.372;2022-11-20T04:44:01;94410.34;;;22.13;37.80
14393;BME280;7281;42.678;23.372;2022-11-20T04:46:36;94410.88;;;22.19;37.52
14393;BME280;7281;42.678;23.372;2022-11-20T04:49:04;94400.28;;;22.35;37.60
14393;BME280;7281;42.678;23.372;2022-11-20T04:51:32;94385.41;;;23.08;36.39
14393;BME280;7281;42.678;23.372;2022-11-20T04:53:59;94382.22;;;23.02;36.86
14393;BME280;7281;42.678;23.372;2022-11-20T04:56:26;94378.28;;;22.53;37.61
14393;BME280;7281;42.678;23.372;2022-11-20T04:58:53;94395.22;;;22.17;37.66
14393;BME280;7281;42.678;23.372;2022-11-20T05:01:23;94380.19;;;22.68;37.37
14393;BME280;7281;42.678;23.372;2022-11-20T05:03:52;94374.19;;;22.71;37.16
14393;BME280;7281;42.678;23.372;2022-11-20T05:06:21;94374.53;;;21.87;38.96
14393;BME280;7281;42.678;23.372;2022-11-20T05:08:48;94364.78;;;22.34;38.36
14393;BME280;7281;42.678;23.372;2022-11-20T05:11:18;94372.34;;;22.32;38.11
14393;BME280;7281;42.678;23.372;2022-11-20T05:13:47;94379.91;;;22.14;38.47
14393;BME280;7281;42.678;23.372;2022-11-20T05:16:16;94380.88;;;22.22;37.97
14393;BME280;7281;42.678;23.372;2022-11-20T05:18:44;94371.91;;;22.30;38.22
14393;BME280;7281;42.678;23.372;2022-11-20T05:21:12;94363.78;;;22.11;38.74
14393;BME280;7281;42.678;23.372;2022-11-20T05:23:40;94368.00;;;22.12;39.09
14393;BME280;7281;42.678;23.372;2022-11-20T05:26:11;94361.31;;;21.90;40.06
14393;BME280;7281;42.678;23.372;2022-11-20T05:28:39;94343.88;;;21.81;40.69
14393;BME280;7281;42.678;23.372;2022-11-20T05:31:14;94343.50;;;21.43;42.23
14393;BME280;7281;42.678;23.372;2022-11-20T05:33:43;94349.09;;;21.26;43.27
14393;BME280;7281;42.678;23.372;2022-11-20T05:36:11;94345.09;;;21.20;43.41
14393;BME280;7281;42.678;23.372;2022-11-20T05:38:39;94365.94;;;21.30;43.21
14393;BME280;7281;42.678;23.372;2022-11-20T05:41:16;94373.16;;;21.41;43.43
14393;BME280;7281;42.678;23.372;2022-11-20T05:43:45;94370.41;;;21.26;43.76
14393;BME280;7281;42.678;23.372;2022-11-20T05:46:30;94360.28;;;21.43;43.29
14393;BME280;7281;42.678;23.372;2022-11-20T05:48:57;94355.72;;;21.44;43.49
14393;BME280;7281;42.678;23.372;2022-11-20T05:51:25;94352.31;;;21.31;43.81
14393;BME280;7281;42.678;23.372;2022-11-20T05:53:52;94356.84;;;21.31;43.65
14393;BME280;7281;42.678;23.372;2022-11-20T05:56:21;94354.84;;;21.40;43.64
14393;BME280;7281;42.678;23.372;2022-11-20T05:58:49;94373.91;;;20.93;44.46
14393;BME280;7281;42.678;23.372;2022-11-20T06:01:25;94376.69;;;20.85;44.19
14393;BME280;7281;42.678;23.372;2022-11-20T06:03:53;94375.28;;;21.11;43.71
14393;BME280;7281;42.678;23.372;2022-11-20T06:06:21;94360.53;;;21.02;43.59
14393;BME280;7281;42.678;23.372;2022-11-20T06:08:48;94359.19;;;21.08;43.62
14393;BME280;7281;42.678;23.372;2022-11-20T06:11:15;94364.69;;;20.79;44.23
14393;BME280;7281;42.678;23.372;2022-11-20T06:13:43;94369.00;;;20.59;44.50
14393;BME280;7281;42.678;23.372;2022-11-20T06:16:12;94402.59;;;20.64;44.45
14393;BME280;7281;42.678;23.372;2022-11-20T06:18:39;94367.50;;;21.43;42.71
14393;BME280;7281;42.678;23.372;2022-11-20T06:21:10;94376.34;;;21.71;42.20
14393;BME280;7281;42.678;23.372;2022-11-20T06:23:37;94382.34;;;21.56;42.23
14393;BME280;7281;42.678;23.372;2022-11-20T06:26:06;94387.03;;;21.47;42.44
14393;BME280;7281;42.678;23.372;2022-11-20T06:28:34;94393.84;;;21.96;41.95
14393;BME280;7281;42.678;23.372;2022-11-20T06:31:02;94395.44;;;21.73;41.75
14393;BME280;7281;42.678;23.372;2022-11-20T06:33:29;94404.13;;;21.82;41.80
14393;BME280;7281;42.678;23.372;2022-11-20T06:36:00;94396.50;;;21.96;41.39
14393;BME280;7281;42.678;23.372;2022-11-20T06:38:34;94384.00;;;21.72;42.01
14393;BME280;7281;42.678;23.372;2022-11-20T06:41:01;94382.25;;;21.52;42.50
14393;BME280;7281;42.678;23.372;2022-11-20T06:43:29;94371.03;;;21.47;42.35
14393;BME280;7281;42.678;23.372;2022-11-20T06:45:57;94379.19;;;21.90;41.49
14393;BME280;7281;42.678;23.372;2022-11-20T06:48:28;94388.50;;;21.96;41.46
14393;BME280;7281;42.678;23.372;2022-11-20T06:50:56;94388.50;;;21.96;41.28
14393;BME280;7281;42.678;23.372;2022-11-20T06:53:23;94394.53;;;21.93;41.19
14393;BME280;7281;42.678;23.372;2022-11-20T06:55:51;94401.22;;;21.87;41.24
14393;BME280;7281;42.678;23.372;2022-11-20T06:58:18;94401.25;;;22.14;41.18
14393;BME280;7281;42.678;23.372;2022-11-20T07:00:45;94402.66;;;22.24;40.60
14393;BME280;7281;42.678;23.372;2022-11-20T07:03:13;94405.22;;;21.69;40.86
14393;BME280;7281;42.678;23.372;2022-11-20T07:05:40;94410.19;;;21.94;40.54
14393;BME280;7281;42.678;23.372;2022-11-20T07:08:09;94405.22;;;21.81;40.74
14393;BME280;7281;42.678;23.372;2022-11-20T07:10:36;94404.72;;;22.03;40.65
14393;BME280;7281;42.678;23.372;2022-11-20T07:13:03;94412.56;;;21.84;40.36
14393;BME280;7281;42.678;23.372;2022-11-20T07:15:30;94409.59;;;22.13;40.00
14393;BME280;7281;42.678;23.372;2022-11-20T07:18:00;94403.09;;;22.26;40.00
14393;BME280;7281;42.678;23.372;2022-11-20T07:20:27;94408.66;;;22.21;40.25
14393;BME280;7281;42.678;23.372;2022-11-20T07:22:55;94407.31;;;22.27;39.93
14393;BME280;7281;42.678;23.372;2022-11-20T07:25:26;94421.56;;;22.19;40.35
14393;BME280;7281;42.678;23.372;2022-11-20T07:27:57;94423.03;;;21.53;40.32
14393;BME280;7281;42.678;23.372;2022-11-20T07:30:25;94415.38;;;22.03;40.01
14393;BME280;7281;42.678;23.372;2022-11-20T07:32:54;94420.25;;;22.13;40.26
14393;BME280;7281;42.678;23.372;2022-11-20T07:35:22;94414.63;;;22.30;39.48
14393;BME280;7281;42.678;23.372;2022-11-20T07:37:49;94414.59;;;22.42;39.46
14393;BME280;7281;42.678;23.372;2022-11-20T07:40:17;94411.50;;;22.28;39.65
14393;BME280;7281;42.678;23.372;2022-11-20T07:42:51;94418.41;;;22.01;40.08
14393;BME280;7281;42.678;23.372;2022-11-20T07:45:20;94417.63;;;22.01;39.90
14393;BME280;7281;42.678;23.372;2022-11-20T07:47:47;94413.41;;;21.88;40.66
14393;BME280;7281;42.678;23.372;2022-11-20T07:50:15;94425.50;;;22.09;40.28
14393;BME280;7281;42.678;23.372;2022-11-20T07:52:43;94421.59;;;22.07;40.09
14393;BME280;7281;42.678;23.372;2022-11-20T07:55:10;94427.84;;;22.11;39.96
14393;BME280;7281;42.678;23.372;2022-11-20T07:57:37;94422.00;;;22.21;39.93
14393;BME280;7281;42.678;23.372;2022-11-20T08:00:05;94425.50;;;22.37;40.03
14393;BME280;7281;42.678;23.372;2022-11-20T08:02:38;94431.78;;;22.17;40.50
14393;BME280;7281;42.678;23.372;2022-11-20T08:05:09;94427.53;;;22.28;40.04
14393;BME280;7281;42.678;23.372;2022-11-20T08:07:41;94411.72;;;22.07;40.26
14393;BME280;7281;42.678;23.372;2022-11-20T08:10:10;94428.81;;;22.19;40.07
14393;BME280;7281;42.678;23.372;2022-11-20T08:12:52;94419.97;;;22.30;40.07
14393;BME280;7281;42.678;23.372;2022-11-20T08:15:39;94415.97;;;21.96;40.63
14393;BME280;7281;42.678;23.372;2022-11-20T08:18:11;94405.34;;;22.12;40.35
14393;BME280;7281;42.678;23.372;2022-11-20T08:21:02;94406.38;;;22.07;40.33
14393;BME280;7281;42.678;23.372;2022-11-20T08:23:30;94403.00;;;21.71;40.82
14393;BME280;7281;42.678;23.372;2022-11-20T08:25:57;94408.66;;;21.81;40.50
14393;BME280;7281;42.678;23.372;2022-11-20T08:28:24;94412.38;;;22.04;40.04
14393;BME280;7281;42.678;23.372;2022-11-20T08:30:50;94410.06;;;22.03;39.85
14393;BME280;7281;42.678;23.372;2022-11-20T08:33:18;94408.50;;;22.02;39.75
14393;BME280;7281;42.678;23.372;2022-11-20T08:35:45;94412.78;;;21.91;39.65
14393;BME280;7281;42.678;23.372;2022-11-20T08:38:12;94418.88;;;21.91;39.96
14393;BME280;7281;42.678;23.372;2022-11-20T08:40:38;94416.38;;;22.10;39.16
14393;BME280;7281;42.678;23.372;2022-11-20T08:43:05;94415.06;;;22.32;39.26
14393;BME280;7281;42.678;23.372;2022-11-20T08:45:32;94417.16;;;22.11;39.04
14393;BME280;7281;42.678;23.372;2022-11-20T08:48:01;94420.81;;;21.55;39.58
14393;BME280;7281;42.678;23.372;2022-11-20T08:50:29;94434.34;;;21.62;39.79
14393;BME280;7281;42.678;23.372;2022-11-20T08:53:05;94452.44;;;21.68;40.27
14393;BME280;7281;42.678;23.372;2022-11-20T08:55:32;94464.53;;;21.78;40.09
14393;BME280;7281;42.678;23.372;2022-11-20T08:58:04;94473.34;;;21.42;41.35
14393;BME280;7281;42.678;23.372;2022-11-20T09:00:32;94469.34;;;21.60;41.06
14393;BME280;7281;42.678;23.372;2022-11-20T09:03:00;94449.63;;;22.13;40.32
14393;BME280;7281;42.678;23.372;2022-11-20T09:05:28;94459.16;;;22.14;40.87
14393;BME280;7281;42.678;23.372;2022-11-20T09:07:58;94452.28;;;22.13;40.83
14393;BME280;7281;42.678;23.372;2022-11-20T09:10:28;94454.41;;;21.95;41.31
14393;BME280;7281;42.678;23.372;2022-11-20T09:12:55;94452.78;;;21.79;41.57
14393;BME280;7281;42.678;23.372;2022-11-20T09:15:23;94467.53;;;21.64;41.19
14393;BME280;7281;42.678;23.372;2022-11-20T09:20:19;94480.44;;;21.62;42.82
14393;BME280;7281;42.678;23.372;2022-11-20T09:22:46;94475.13;;;20.93;43.09
14393;BME280;7281;42.678;23.372;2022-11-20T09:25:13;94457.78;;;21.68;42.24
14393;BME280;7281;42.678;23.372;2022-11-20T09:27:39;94481.50;;;21.01;44.33
14393;BME280;7281;42.678;23.372;2022-11-20T09:30:10;94488.06;;;20.38;45.16
14393;BME280;7281;42.678;23.372;2022-11-20T09:32:41;94474.41;;;20.72;44.94
14393;BME280;7281;42.678;23.372;2022-11-20T09:35:08;94476.66;;;20.29;45.58
14393;BME280;7281;42.678;23.372;2022-11-20T09:37:35;94460.72;;;20.94;44.68
14393;BME280;7281;42.678;23.372;2022-11-20T09:40:02;94451.81;;;21.47;44.09
14393;BME280;7281;42.678;23.372;2022-11-20T09:42:49;94447.78;;;21.53;44.00
14393;BME280;7281;42.678;23.372;2022-11-20T09:52:00;94433.66;;;21.04;46.49
14393;BME280;7281;42.678;23.372;2022-11-20T09:54:30;94417.03;;;21.07;45.85
14393;BME280;7281;42.678;23.372;2022-11-20T09:57:13;94419.03;;;21.23;45.88
14393;BME280;7281;42.678;23.372;2022-11-20T10:00:06;94415.03;;;21.17;47.25
14393;BME280;7281;42.678;23.372;2022-11-20T10:03:01;94416.56;;;20.49;49.05
14393;BME280;7281;42.678;23.372;2022-11-20T10:05:35;94416.19;;;20.83;48.57
14393;BME280;7281;42.678;23.372;2022-11-20T10:08:12;94421.81;;;20.69;48.71
14393;BME280;7281;42.678;23.372;2022-11-20T10:14:00;94406.84;;;20.32;48.87
14393;BME280;7281;42.678;23.372;2022-11-20T10:22:27;94397.28;;;20.64;48.32
14393;BME280;7281;42.678;23.372;2022-11-20T10:25:13;94400.44;;;20.12;49.97
14393;BME280;7281;42.678;23.372;2022-11-20T10:30:42;94364.84;;;19.84;51.51
14393;BME280;7281;42.678;23.372;2022-11-20T10:33:16;94397.94;;;20.61;49.71
14393;BME280;7281;42.678;23.372;2022-11-20T10:38:46;94395.19;;;20.25;49.90
14393;BME280;7281;42.678;23.372;2022-11-20T10:41:21;94400.03;;;20.55;49.21
14393;BME280;7281;42.678;23.372;2022-11-20T10:46:24;94393.69;;;20.92;48.45
14393;BME280;7281;42.678;23.372;2022-11-20T10:48:52;94405.25;;;20.64;48.36
14393;BME280;7281;42.678;23.372;2022-11-20T10:57:02;94390.66;;;20.70;49.62
14393;BME280;7281;42.678;23.372;2022-11-20T11:02:21;94423.47;;;19.88;51.35
14393;BME280;7281;42.678;23.372;2022-11-20T11:04:52;94434.88;;;20.09;51.32
14393;BME280;7281;42.678;23.372;2022-11-20T11:07:47;94426.09;;;20.50;51.75
14393;BME280;7281;42.678;23.372;2022-11-20T11:10:24;94450.91;;;20.74;51.94
14393;BME280;7281;42.678;23.372;2022-11-20T11:12:52;94457.91;;;20.46;52.37
14393;BME280;7281;42.678;23.372;2022-11-20T11:15:36;94465.50;;;20.15;52.87
14393;BME280;7281;42.678;23.372;2022-11-20T11:18:04;94492.56;;;19.30;56.94
14393;BME280;7281;42.678;23.372;2022-11-20T11:20:31;94495.88;;;18.29;59.67
14393;BME280;7281;42.678;23.372;2022-11-20T11:22:59;94473.91;;;18.11;53.22
14393;BME280;7281;42.678;23.372;2022-11-20T11:25:30;94483.25;;;18.26;51.81
14393;BME280;7281;42.678;23.372;2022-11-20T11:28:05;94460.63;;;17.86;49.54
14393;BME280;7281;42.678;23.372;2022-11-20T11:30:45;94468.28;;;18.13;50.46
14393;BME280;7281;42.678;23.372;2022-11-20T11:33:28;94469.03;;;18.05;50.68
14393;BME280;7281;42.678;23.372;2022-11-20T11:35:58;94481.16;;;17.55;51.32
14393;BME280;7281;42.678;23.372;2022-11-20T11:38:34;94482.31;;;17.88;50.96
14393;BME280;7281;42.678;23.372;2022-11-20T11:41:03;94471.97;;;17.78;50.53
14393;BME280;7281;42.678;23.372;2022-11-20T11:43:36;94480.25;;;17.68;51.49
14393;BME280;7281;42.678;23.372;2022-11-20T11:46:28;94471.09;;;18.08;51.27
14393;BME280;7281;42.678;23.372;2022-11-20T11:54:13;94459.03;;;17.68;52.05
14393;BME280;7281;42.678;23.372;2022-11-20T11:56:41;94479.38;;;17.02;53.86
14393;BME280;7281;42.678;23.372;2022-11-20T11:59:12;94472.97;;;17.43;53.12
14393;BME280;7281;42.678;23.372;2022-11-20T12:01:47;94468.22;;;17.70;52.33
14393;BME280;7281;42.678;23.372;2022-11-20T12:04:44;94443.16;;;18.19;51.26
14393;BME280;7281;42.678;23.372;2022-11-20T12:07:22;94447.34;;;17.69;52.01
14393;BME280;7281;42.678;23.372;2022-11-20T12:10:20;94450.00;;;17.69;52.09
14393;BME280;7281;42.678;23.372;2022-11-20T12:15:44;94451.84;;;17.60;50.85
14393;BME280;7281;42.678;23.372;2022-11-20T12:18:21;94456.00;;;17.44;51.24
14393;BME280;7281;42.678;23.372;2022-11-20T12:21:07;94456.72;;;17.75;51.28
14393;BME280;7281;42.678;23.372;2022-11-20T12:31:56;94475.72;;;16.59;53.70
14393;BME280;7281;42.678;23.372;2022-11-20T12:39:48;94434.44;;;17.28;52.37
14393;BME280;7281;42.678;23.372;2022-11-20T12:42:45;94426.78;;;17.09;53.06
14393;BME280;7281;42.678;23.372;2022-11-20T12:45:52;94372.38;;;17.60;52.41
14393;BME280;7281;42.678;23.372;2022-11-20T12:53:58;94388.22;;;18.45;49.89
14393;BME280;7281;42.678;23.372;2022-11-20T13:01:52;94398.72;;;17.99;52.26
14393;BME280;7281;42.678;23.372;2022-11-20T13:07:13;94381.38;;;18.27;52.88
14393;BME280;7281;42.678;23.372;2022-11-20T13:09:44;94367.88;;;17.60;55.13
14393;BME280;7281;42.678;23.372;2022-11-20T13:20:04;94358.00;;;17.44;53.19
14393;BME280;7281;42.678;23.372;2022-11-20T13:22:51;94392.88;;;17.37;53.88
14393;BME280;7281;42.678;23.372;2022-11-20T13:27:53;94419.13;;;17.56;52.83
14393;BME280;7281;42.678;23.372;2022-11-20T13:30:22;94344.81;;;17.61;53.94
14393;BME280;7281;42.678;23.372;2022-11-20T13:35:34;94451.53;;;17.53;54.94
14393;BME280;7281;42.678;23.372;2022-11-20T13:38:13;94463.22;;;17.12;54.96
14393;BME280;7281;42.678;23.372;2022-11-20T13:43:22;94387.03;;;17.83;54.88
14393;BME280;7281;42.678;23.372;2022-11-20T13:45:59;94418.53;;;17.93;53.38
14393;BME280;7281;42.678;23.372;2022-11-20T13:48:31;94416.19;;;17.91;53.09
14393;BME280;7281;42.678;23.372;2022-11-20T13:54:17;94407.28;;;18.30;53.12
14393;BME280;7281;42.678;23.372;2022-11-20T14:01:43;94428.31;;;18.27;52.39
14393;BME280;7281;42.678;23.372;2022-11-20T14:04:27;94434.91;;;18.20;52.32
14393;BME280;7281;42.678;23.372;2022-11-20T14:06:55;94418.53;;;18.10;52.57
14393;BME280;7281;42.678;23.372;2022-11-20T14:09:29;94428.66;;;18.34;53.04
14393;BME280;7281;42.678;23.372;2022-11-20T14:11:56;94420.41;;;17.84;54.05
14393;BME280;7281;42.678;23.372;2022-11-20T14:14:25;94414.91;;;18.32;53.11
14393;BME280;7281;42.678;23.372;2022-11-20T14:17:07;94394.81;;;18.05;53.71
14393;BME280;7281;42.678;23.372;2022-11-20T14:19:34;94406.03;;;18.19;53.77
14393;BME280;7281;42.678;23.372;2022-11-20T14:22:07;94403.03;;;18.29;52.90
14393;BME280;7281;42.678;23.372;2022-11-20T14:24:35;94405.09;;;17.98;53.83
14393;BME280;7281;42.678;23.372;2022-11-20T14:27:02;94411.66;;;18.26;52.87
14393;BME280;7281;42.678;23.372;2022-11-20T14:29:33;94399.81;;;18.15;52.69
14393;BME280;7281;42.678;23.372;2022-11-20T14:32:02;94399.91;;;18.36;52.85
14393;BME280;7281;42.678;23.372;2022-11-20T14:34:32;94395.59;;;18.05;53.02
14393;BME280;7281;42.678;23.372;2022-11-20T14:37:05;94416.00;;;18.22;53.58
14393;BME280;7281;42.678;23.372;2022-11-20T14:39:51;94432.56;;;18.19;53.45
14393;BME280;7281;42.678;23.372;2022-11-20T14:42:24;94426.16;;;17.94;53.89
14393;BME280;7281;42.678;23.372;2022-11-20T14:44:55;94425.97;;;18.25;53.25
14393;BME280;7281;42.678;23.372;2022-11-20T14:47:27;94429.75;;;18.15;53.88
14393;BME280;7281;42.678;23.372;2022-11-20T14:49:57;94420.72;;;18.08;54.23
14393;BME280;7281;42.678;23.372;2022-11-20T14:52:26;94434.91;;;18.20;53.57
14393;BME280;7281;42.678;23.372;2022-11-20T14:54:55;94426.50;;;17.19;56.23
14393;BME280;7281;42.678;23.372;2022-11-20T14:57:28;94414.00;;;17.76;55.01
14393;BME280;7281;42.678;23.372;2022-11-20T15:02:39;94417.25;;;18.16;54.76